Time;durP1;ratioP1;P1;durP2;ratioP2;P2;SDS_P1;SDS_P2;PMS_P1;PMS_P2;Temp;Humidity;BMP_temperature;BMP_pressure;BME280_temperature;BME280_humidity;BME280_pressure;Samples;Min_cycle;Max_cycle;Signal;HPM_P1;HPM_P2
2023/03/18 00:00:43;;;;;;;26.58;8.73;;;;;;;11.67;100.00;100794.94;5244224;28;20373;-75
2023/03/18 00:03:14;;;;;;;21.15;8.90;;;;;;;11.72;100.00;100797.09;5243756;28;20028;-75
2023/03/18 00:05:45;;;;;;;24.05;9.10;;;;;;;11.77;100.00;100792.03;5244649;28;20024;-75
2023/03/18 00:08:16;;;;;;;24.33;9.55;;;;;;;11.82;100.00;100794.22;5243566;28;20023;-74
2023/03/18 00:10:49;;;;;;;32.72;9.77;;;;;;;11.85;100.00;100799.25;5226496;28;20035;-76
2023/03/18 00:13:20;;;;;;;20.63;9.77;;;;;;;11.86;100.00;100801.78;5244211;28;20028;-75
2023/03/18 00:15:51;;;;;;;18.48;9.18;;;;;;;11.87;100.00;100798.06;5244201;28;20508;-75
2023/03/18 00:18:22;;;;;;;20.48;9.25;;;;;;;11.85;100.00;100801.94;5243225;28;20028;-75
2023/03/18 00:20:52;;;;;;;24.80;10.52;;;;;;;11.82;100.00;100802.28;5244234;28;20158;-75
2023/03/18 00:23:25;;;;;;;22.83;9.98;;;;;;;11.72;100.00;100798.94;5243797;28;20060;-75
2023/03/18 00:25:57;;;;;;;25.92;11.43;;;;;;;11.62;100.00;100788.41;5243366;28;20024;-75
2023/03/18 00:28:28;;;;;;;25.75;10.10;;;;;;;11.58;100.00;100773.63;5225441;28;20400;-74
2023/03/18 00:31:14;;;;;;;21.25;10.75;;;;;;;11.51;100.00;100794.16;5243755;28;20107;-75
2023/03/18 00:33:45;;;;;;;29.67;12.13;;;;;;;11.38;100.00;100794.69;5243873;28;20637;-75
2023/03/18 00:36:17;;;;;;;29.50;12.63;;;;;;;11.26;100.00;100802.28;5243633;28;20092;-75
2023/03/18 00:38:49;;;;;;;30.90;13.05;;;;;;;11.19;100.00;100801.28;5225309;28;20036;-75
2023/03/18 00:41:20;;;;;;;33.03;14.13;;;;;;;11.08;100.00;100802.50;5220573;28;20031;-75
2023/03/18 00:43:52;;;;;;;33.80;13.50;;;;;;;11.04;100.00;100805.69;5243569;28;20028;-75
2023/03/18 00:46:26;;;;;;;34.28;13.88;;;;;;;11.01;100.00;100809.56;5243286;28;20020;-75
2023/03/18 00:48:59;;;;;;;34.15;13.90;;;;;;;10.99;100.00;100806.19;5237465;28;20099;-75
2023/03/18 00:51:36;;;;;;;33.28;13.88;;;;;;;10.98;100.00;100809.88;5242986;28;20032;-75
2023/03/18 00:54:09;;;;;;;28.65;13.52;;;;;;;10.96;100.00;100814.59;5243621;28;20031;-75
2023/03/18 00:56:40;;;;;;;31.55;14.23;;;;;;;10.93;100.00;100812.25;5225175;28;20027;-75
2023/03/18 00:59:10;;;;;;;32.33;13.75;;;;;;;10.91;100.00;100814.28;5243491;28;20032;-75
2023/03/18 01:01:41;;;;;;;32.80;14.57;;;;;;;10.88;100.00;100803.84;5243003;28;20024;-75
2023/03/18 01:04:11;;;;;;;35.63;14.45;;;;;;;10.85;100.00;100813.09;5243591;28;20016;-75
2023/03/18 01:06:42;;;;;;;36.88;15.45;;;;;;;10.87;100.00;100812.94;5243064;28;20693;-75
2023/03/18 01:09:13;;;;;;;37.60;16.13;;;;;;;10.85;100.00;100815.78;5243229;28;20108;-74
2023/03/18 01:11:43;;;;;;;34.63;14.85;;;;;;;10.86;100.00;100814.78;5243306;28;20037;-75
2023/03/18 01:14:14;;;;;;;32.42;13.20;;;;;;;10.85;100.00;100815.78;5243071;28;20028;-75
2023/03/18 01:16:45;;;;;;;34.97;16.40;;;;;;;10.82;100.00;100824.16;5242818;28;20025;-74
2023/03/18 01:19:16;;;;;;;44.28;17.58;;;;;;;10.75;100.00;100835.75;5243033;28;20024;-75
2023/03/18 01:21:46;;;;;;;32.20;15.65;;;;;;;10.63;100.00;100828.00;5224937;28;20021;-75
2023/03/18 01:24:16;;;;;;;32.95;14.98;;;;;;;10.54;100.00;100837.09;5243059;28;20031;-74
2023/03/18 01:26:48;;;;;;;42.42;15.38;;;;;;;10.50;100.00;100832.22;5242541;28;20048;-75
2023/03/18 01:29:19;;;;;;;32.05;16.08;;;;;;;10.49;100.00;100834.06;5225202;28;20021;-75
2023/03/18 01:31:50;;;;;;;44.17;17.40;;;;;;;10.50;100.00;100826.84;5225238;28;20366;-75
2023/03/18 01:34:20;;;;;;;38.35;16.92;;;;;;;10.49;100.00;100834.06;5242832;28;20017;-75
2023/03/18 01:36:51;;;;;;;40.83;16.85;;;;;;;10.49;100.00;100835.88;5244408;28;20438;-75
2023/03/18 01:39:22;;;;;;;37.63;16.80;;;;;;;10.50;100.00;100835.72;5246484;28;20059;-75
2023/03/18 01:41:52;;;;;;;41.58;17.45;;;;;;;10.50;100.00;100829.53;5214328;28;20040;-75
2023/03/18 01:44:24;;;;;;;39.03;18.23;;;;;;;10.52;100.00;100822.16;5244852;28;20020;-75
2023/03/18 01:46:55;;;;;;;48.10;18.85;;;;;;;10.52;100.00;100831.03;5246464;28;20103;-75
2023/03/18 01:49:32;;;;;;;49.03;18.25;;;;;;;10.55;100.00;100830.72;5241685;28;20063;-75
2023/03/18 01:52:07;;;;;;;49.13;19.40;;;;;;;10.57;100.00;100830.53;5246669;28;20512;-75
2023/03/18 01:54:42;;;;;;;43.92;18.58;;;;;;;10.59;100.00;100828.50;5247229;28;20032;-75
2023/03/18 01:57:16;;;;;;;43.55;18.90;;;;;;;10.61;100.00;100835.41;5246520;28;20025;-75
2023/03/18 01:59:49;;;;;;;41.63;19.52;;;;;;;10.60;100.00;100839.09;5246397;28;20017;-75
2023/03/18 02:02:20;;;;;;;38.88;18.75;;;;;;;10.61;100.00;100839.94;5247190;28;20032;-74
2023/03/18 02:04:53;;;;;;;42.22;19.30;;;;;;;10.61;100.00;100840.75;5247139;28;20024;-75
2023/03/18 02:07:43;;;;;;;47.70;19.20;;;;;;;10.61;100.00;100830.03;5231583;28;20558;-75
2023/03/18 02:10:19;;;;;;;47.15;20.00;;;;;;;10.60;100.00;100823.00;5246662;28;20066;-75
2023/03/18 02:13:11;;;;;;;51.85;20.08;;;;;;;10.60;100.00;100827.53;5247153;28;20427;-75
2023/03/18 02:15:57;;;;;;;39.95;19.73;;;;;;;10.62;100.00;100823.66;5237572;28;20034;-75
2023/03/18 02:18:44;;;;;;;42.33;19.85;;;;;;;10.61;100.00;100830.03;5246127;28;20024;-75
2023/03/18 02:21:52;;;;;;;43.90;19.17;;;;;;;10.62;100.00;100831.72;5245508;28;20030;-75
2023/03/18 02:24:44;;;;;;;46.75;20.88;;;;;;;10.60;100.00;100833.72;5246849;28;20024;-75
2023/03/18 02:27:49;;;;;;;42.03;20.35;;;;;;;10.60;100.00;100843.63;5228119;28;20035;-75
2023/03/18 02:30:27;;;;;;;41.03;19.80;;;;;;;10.59;100.00;100844.59;5244407;28;20095;-74
2023/03/18 02:32:58;;;;;;;50.13;20.27;;;;;;;10.57;100.00;100847.47;5228706;28;20032;-75
2023/03/18 02:35:31;;;;;;;40.67;19.58;;;;;;;10.57;100.00;100847.47;5246028;28;20090;-75
2023/03/18 02:38:02;;;;;;;43.33;20.65;;;;;;;10.55;100.00;100843.28;5248764;28;20107;-75
2023/03/18 02:40:37;;;;;;;42.22;20.00;;;;;;;10.56;100.00;100837.75;5242635;28;20036;-74
2023/03/18 02:43:28;;;;;;;53.47;19.95;;;;;;;10.56;100.00;100843.09;5247543;28;20479;-74
2023/03/18 02:46:36;;;;;;;45.65;19.67;;;;;;;10.56;100.00;100840.44;5245766;28;20052;-76
2023/03/18 02:49:07;;;;;;;50.53;21.45;;;;;;;10.55;100.00;100840.59;5235569;28;20017;-74
2023/03/18 02:51:38;;;;;;;45.50;20.48;;;;;;;10.54;100.00;100845.13;5237461;28;20029;-75
2023/03/18 02:54:12;;;;;;;53.50;20.52;;;;;;;10.52;100.00;100846.28;5246319;28;20085;-75
2023/03/18 02:56:43;;;;;;;45.55;19.50;;;;;;;10.50;100.00;100851.81;5245746;28;20020;-75
2023/03/18 02:59:14;;;;;;;45.30;21.20;;;;;;;10.48;100.00;100851.13;5246235;28;20033;-75
2023/03/18 03:01:46;;;;;;;50.97;20.63;;;;;;;10.45;100.00;100848.81;5246007;28;20031;-76
2023/03/18 03:04:19;;;;;;;47.65;21.10;;;;;;;10.41;100.00;100850.13;5246130;28;20472;-75
2023/03/18 03:06:51;;;;;;;42.53;19.83;;;;;;;10.38;100.00;100855.81;5227578;28;20028;-75
2023/03/18 03:09:23;;;;;;;48.67;20.38;;;;;;;10.34;100.00;100854.47;5246201;28;20017;-75
2023/03/18 03:11:53;;;;;;;44.72;19.95;;;;;;;10.32;100.00;100859.16;5245750;28;20027;-75
2023/03/18 03:14:24;;;;;;;49.05;20.40;;;;;;;10.32;100.00;100856.47;5246056;28;20127;-75
2023/03/18 03:16:55;;;;;;;45.17;19.67;;;;;;;10.28;100.00;100861.31;5245207;28;20027;-75
2023/03/18 03:19:26;;;;;;;51.42;21.02;;;;;;;10.25;100.00;100845.56;5245159;28;20052;-75
2023/03/18 03:21:57;;;;;;;42.88;18.65;;;;;;;10.21;100.00;100859.44;5245572;28;20048;-75
2023/03/18 03:24:29;;;;;;;57.78;20.42;;;;;;;10.15;100.00;100857.41;5245733;28;20023;-75
2023/03/18 03:26:59;;;;;;;39.97;20.15;;;;;;;10.06;100.00;100857.38;5245399;28;20111;-75
2023/03/18 03:29:30;;;;;;;40.70;19.00;;;;;;;9.99;100.00;100861.72;5245155;28;20024;-74
2023/03/18 03:32:01;;;;;;;50.90;20.40;;;;;;;9.95;100.00;100868.41;5245255;28;20032;-75
2023/03/18 03:34:32;;;;;;;49.38;20.05;;;;;;;9.92;100.00;100866.03;5245218;28;20393;-75
2023/03/18 03:37:03;;;;;;;48.40;20.63;;;;;;;9.90;100.00;100868.06;5245005;28;20033;-75
2023/03/18 03:39:33;;;;;;;48.80;20.42;;;;;;;9.89;100.00;100866.38;5245010;28;20389;-75
2023/03/18 03:42:04;;;;;;;51.03;21.48;;;;;;;9.89;100.00;100879.78;5240569;28;20098;-75
2023/03/18 03:44:35;;;;;;;48.88;21.73;;;;;;;9.88;100.00;100886.13;5245033;28;20024;-75
2023/03/18 03:47:06;;;;;;;46.75;21.88;;;;;;;9.92;100.00;100887.47;5243329;28;20119;-75
2023/03/18 03:49:37;;;;;;;49.97;23.35;;;;;;;9.95;100.00;100889.00;5240982;28;20044;-74
2023/03/18 03:52:07;;;;;;;53.85;22.17;;;;;;;9.95;100.00;100889.84;5244989;28;20043;-76
2023/03/18 03:54:40;;;;;;;51.88;21.17;;;;;;;9.96;100.00;100878.13;5245158;28;20639;-75
2023/03/18 03:57:11;;;;;;;54.95;21.77;;;;;;;9.92;100.00;100875.91;5226670;28;20043;-74
2023/03/18 03:59:41;;;;;;;50.78;22.48;;;;;;;9.83;100.00;100883.06;5227051;28;20033;-75
2023/03/18 04:02:12;;;;;;;53.45;21.30;;;;;;;9.75;100.00;100893.78;5244692;28;20048;-75
2023/03/18 04:04:44;;;;;;;47.75;21.55;;;;;;;9.71;100.00;100895.09;5245106;28;20485;-74
2023/03/18 04:07:15;;;;;;;45.80;21.05;;;;;;;9.68;100.00;100904.25;5243793;28;20085;-75
2023/03/18 04:09:45;;;;;;;49.53;21.20;;;;;;;9.69;100.00;100905.09;5244515;28;20016;-75
2023/03/18 04:12:18;;;;;;;48.38;22.13;;;;;;;9.73;100.00;100907.31;5244754;28;20024;-75
2023/03/18 04:14:49;;;;;;;50.30;21.38;;;;;;;9.77;100.00;100905.16;5227012;28;20103;-75
2023/03/18 04:17:19;;;;;;;59.25;21.85;;;;;;;9.78;100.00;100902.31;5244137;28;20457;-75
2023/03/18 04:19:50;;;;;;;49.17;20.20;;;;;;;9.74;100.00;100897.44;5244021;28;20032;-75
2023/03/18 04:22:21;;;;;;;44.28;20.88;;;;;;;9.69;100.00;100899.75;5244522;28;20031;-75
2023/03/18 04:24:51;;;;;;;46.85;21.15;;;;;;;9.63;100.00;100903.91;5244547;28;20032;-75
2023/03/18 04:27:22;;;;;;;47.75;19.85;;;;;;;9.54;100.00;100903.03;5244217;28;20036;-75
2023/03/18 04:29:53;;;;;;;48.13;20.58;;;;;;;9.49;100.00;100908.03;5244371;28;20055;-75
2023/03/18 04:32:23;;;;;;;54.95;20.30;;;;;;;9.44;100.00;100899.63;5244294;28;20032;-74
2023/03/18 04:34:54;;;;;;;43.75;19.75;;;;;;;9.37;100.00;100905.75;5244434;28;20027;-75
2023/03/18 04:37:25;;;;;;;44.30;19.83;;;;;;;9.29;100.00;100901.19;5243812;28;20028;-75
2023/03/18 04:39:57;;;;;;;40.47;18.35;;;;;;;9.21;100.00;100909.16;5244358;28;20036;-74
2023/03/18 04:42:27;;;;;;;41.15;18.75;;;;;;;9.14;100.00;100897.41;5238703;28;20024;-75
2023/03/18 04:44:58;;;;;;;43.88;19.02;;;;;;;9.07;100.00;100892.66;5244179;28;20063;-75
2023/03/18 04:47:28;;;;;;;42.42;18.45;;;;;;;8.99;100.00;100903.31;5223893;28;20031;-75
2023/03/18 04:49:59;;;;;;;43.28;18.85;;;;;;;8.86;100.00;100910.03;5228537;28;20652;-75
2023/03/18 04:52:30;;;;;;;39.78;18.67;;;;;;;8.76;100.00;100896.75;5242437;28;20024;-74
2023/03/18 04:55:00;;;;;;;45.15;20.05;;;;;;;8.73;100.00;100911.25;5244230;28;20035;-75
2023/03/18 04:57:34;;;;;;;34.95;16.05;;;;;;;8.58;100.00;100896.72;5243408;28;20020;-75
2023/03/18 05:00:06;;;;;;;37.92;16.67;;;;;;;8.46;100.00;100893.44;5243848;28;20028;-75
2023/03/18 05:02:38;;;;;;;42.03;16.10;;;;;;;8.35;100.00;100906.16;5244434;28;20029;-75
2023/03/18 05:05:09;;;;;;;34.22;16.58;;;;;;;8.22;100.00;100911.84;5244299;28;20029;-74
2023/03/18 05:07:41;;;;;;;43.63;18.08;;;;;;;8.23;100.00;100926.88;5243368;28;20031;-75
2023/03/18 05:10:12;;;;;;;44.25;18.95;;;;;;;8.18;100.00;100922.00;5243946;28;20027;-75
2023/03/18 05:12:42;;;;;;;45.33;21.42;;;;;;;8.28;100.00;100917.44;5243700;28;20020;-74
2023/03/18 05:15:13;;;;;;;52.25;22.90;;;;;;;8.31;100.00;100919.81;5243973;28;20035;-75
2023/03/18 05:17:44;;;;;;;61.10;22.85;;;;;;;8.34;100.00;100910.66;5243441;28;20560;-75
2023/03/18 05:20:14;;;;;;;55.58;21.73;;;;;;;8.48;100.00;100917.34;5243480;28;20664;-75
2023/03/18 05:22:45;;;;;;;46.63;21.13;;;;;;;8.42;100.00;100915.28;5243528;28;20104;-75
2023/03/18 05:25:16;;;;;;;53.38;20.60;;;;;;;8.40;100.00;100922.63;5243967;28;20028;-75
2023/03/18 05:27:47;;;;;;;48.33;21.98;;;;;;;8.40;100.00;100915.44;5243354;28;20020;-75
2023/03/18 05:30:18;;;;;;;52.55;22.70;;;;;;;8.46;100.00;100906.81;5244585;28;20060;-75
2023/03/18 05:32:48;;;;;;;53.08;22.63;;;;;;;8.46;100.00;100919.34;5243430;28;20024;-75
2023/03/18 05:35:19;;;;;;;50.00;21.63;;;;;;;8.40;100.00;100931.47;5244118;28;20389;-74
2023/03/18 05:37:49;;;;;;;48.00;20.25;;;;;;;8.32;100.00;100928.66;5243042;28;20491;-74
2023/03/18 05:40:20;;;;;;;52.70;23.02;;;;;;;8.38;100.00;100927.25;5241019;28;20484;-75
2023/03/18 05:42:51;;;;;;;59.72;22.90;;;;;;;8.38;100.00;100937.94;5241650;28;20021;-76
2023/03/18 05:45:21;;;;;;;60.55;24.65;;;;;;;8.42;100.00;100926.81;5243419;28;20716;-75
2023/03/18 05:47:52;;;;;;;65.85;25.77;;;;;;;8.61;100.00;100927.69;5241781;28;20089;-82
2023/03/18 05:50:40;;;;;;;55.85;24.38;;;;;;;8.68;100.00;100926.06;5226387;28;20028;-84
2023/03/18 05:53:12;;;;;;;58.50;25.15;;;;;;;8.65;100.00;100932.56;5226863;28;20077;-78
2023/03/18 05:55:42;;;;;;;61.55;25.55;;;;;;;8.72;100.00;100933.63;5243676;28;20039;-77
2023/03/18 05:58:13;;;;;;;53.13;23.75;;;;;;;8.72;100.00;100941.66;5244171;28;20021;-78
2023/03/18 06:00:44;;;;;;;52.10;22.98;;;;;;;8.69;100.00;100943.81;5244330;28;20036;-77
2023/03/18 06:03:15;;;;;;;54.95;22.73;;;;;;;8.72;100.00;100947.00;5244043;28;20031;-77
2023/03/18 06:05:46;;;;;;;56.33;24.02;;;;;;;8.75;100.00;100948.56;5244378;28;20077;-77
2023/03/18 06:08:16;;;;;;;56.58;22.20;;;;;;;8.74;100.00;100950.41;5243486;28;20028;-77
2023/03/18 06:10:47;;;;;;;61.53;23.45;;;;;;;8.71;100.00;100950.69;5239302;28;20024;-77
2023/03/18 06:13:18;;;;;;;50.33;22.42;;;;;;;8.67;100.00;100956.50;5229189;28;20070;-77
2023/03/18 06:15:55;;;;;;;51.00;23.05;;;;;;;8.69;100.00;100958.03;5239764;28;20704;-77
2023/03/18 06:18:26;;;;;;;53.88;22.00;;;;;;;8.74;100.00;100958.41;5242238;28;20504;-77
2023/03/18 06:20:57;;;;;;;47.38;20.58;;;;;;;8.81;100.00;100953.28;5242875;28;20495;-77
2023/03/18 06:23:28;;;;;;;48.33;20.52;;;;;;;8.84;100.00;100963.69;5235879;28;20064;-77
2023/03/18 06:25:58;;;;;;;46.05;19.90;;;;;;;8.91;100.00;100961.25;5246356;28;20047;-77
2023/03/18 06:28:30;;;;;;;44.03;19.73;;;;;;;8.97;100.00;100960.63;5245293;28;20174;-77
2023/03/18 06:31:01;;;;;;;41.05;19.00;;;;;;;9.10;100.00;100960.25;5244839;28;20035;-77
2023/03/18 06:33:31;;;;;;;37.50;18.38;;;;;;;9.24;100.00;100957.88;5245893;28;20029;-77
2023/03/18 06:36:03;;;;;;;43.08;18.63;;;;;;;9.46;100.00;100964.56;5246048;28;20064;-77
2023/03/18 06:38:33;;;;;;;33.70;16.85;;;;;;;9.80;100.00;100953.91;5246108;28;20568;-76
2023/03/18 06:41:04;;;;;;;29.95;15.00;;;;;;;10.01;100.00;100952.69;5240439;28;20114;-77
2023/03/18 06:43:34;;;;;;;28.58;14.98;;;;;;;10.03;100.00;100956.88;5245241;28;20027;-77
2023/03/18 06:46:05;;;;;;;29.13;15.55;;;;;;;10.02;100.00;100962.41;5246570;28;20116;-77
2023/03/18 06:48:39;;;;;;;27.40;15.50;;;;;;;10.11;100.00;100967.63;5227212;28;20013;-77
2023/03/18 06:51:10;;;;;;;33.65;15.30;;;;;;;10.31;100.00;100962.91;5228756;28;20477;-78
2023/03/18 06:53:40;;;;;;;24.85;13.38;;;;;;;10.40;100.00;100974.50;5246292;28;20083;-76
2023/03/18 06:56:14;;;;;;;28.60;13.88;;;;;;;10.48;100.00;100979.88;5245292;28;20783;-77
2023/03/18 06:58:45;;;;;;;30.15;13.63;;;;;;;10.58;100.00;100971.69;5244952;28;21413;-77
2023/03/18 07:01:16;;;;;;;22.00;13.70;;;;;;;10.83;100.00;100972.59;5244894;28;20069;-77
2023/03/18 07:03:48;;;;;;;22.00;12.98;;;;;;;10.81;100.00;100962.03;5216322;28;20151;-78
2023/03/18 07:06:18;;;;;;;23.98;12.80;;;;;;;10.69;100.00;100959.81;5246111;28;20028;-77
2023/03/18 07:08:49;;;;;;;23.75;13.80;;;;;;;10.67;100.00;100960.00;5244683;28;20373;-77
2023/03/18 07:11:19;;;;;;;29.52;14.07;;;;;;;10.99;100.00;100964.56;5244970;28;20112;-77
2023/03/18 07:13:51;;;;;;;25.65;12.85;;;;;;;11.42;100.00;100967.94;5245224;28;20020;-77
2023/03/18 07:16:22;;;;;;;22.30;12.57;;;;;;;11.83;100.00;100973.31;5245057;28;20024;-78
2023/03/18 07:18:53;;;;;;;20.52;11.60;;;;;;;12.02;100.00;100970.22;5245104;28;20047;-78
2023/03/18 07:21:26;;;;;;;21.02;11.75;;;;;;;12.19;100.00;100969.16;5243967;28;20397;-78
2023/03/18 07:23:58;;;;;;;19.50;11.65;;;;;;;12.44;100.00;100975.28;5237639;28;20032;-79
2023/03/18 07:26:29;;;;;;;21.27;11.73;;;;;;;12.81;100.00;100976.44;5230284;28;20082;-78
2023/03/18 07:29:00;;;;;;;23.33;11.13;;;;;;;13.02;100.00;100970.41;5228158;28;20596;-78
2023/03/18 07:31:31;;;;;;;20.63;11.38;;;;;;;13.17;100.00;100971.31;5245219;28;20028;-77
2023/03/18 07:34:01;;;;;;;14.23;9.18;;;;;;;13.37;100.00;100971.69;5247929;28;20451;-77
2023/03/18 07:36:32;;;;;;;15.80;10.40;;;;;;;13.07;100.00;100980.66;5247681;28;20047;-77
2023/03/18 07:39:06;;;;;;;16.02;9.48;;;;;;;13.31;100.00;100974.28;5249908;28;20043;-78
2023/03/18 07:41:36;;;;;;;16.13;9.73;;;;;;;13.71;100.00;100978.47;5240278;28;20025;-78
2023/03/18 07:44:07;;;;;;;16.05;9.02;;;;;;;14.30;100.00;100978.47;5244369;28;20023;-78
2023/03/18 07:46:38;;;;;;;13.13;8.38;;;;;;;14.41;100.00;100983.41;5248705;28;20707;-77
2023/03/18 07:49:08;;;;;;;13.73;8.18;;;;;;;14.52;100.00;100984.81;5245885;28;20043;-78
2023/03/18 07:51:39;;;;;;;13.15;8.52;;;;;;;14.97;100.00;100972.88;5245570;28;20374;-77
2023/03/18 07:54:10;;;;;;;14.98;8.10;;;;;;;14.86;100.00;100973.38;5246787;28;20024;-78
2023/03/18 07:56:40;;;;;;;12.68;8.02;;;;;;;14.72;100.00;100964.28;5216586;28;20082;-79
2023/03/18 07:59:11;;;;;;;14.73;7.78;;;;;;;14.52;100.00;100981.28;5230212;28;20103;-79
2023/03/18 08:01:41;;;;;;;15.93;7.82;;;;;;;14.49;100.00;100982.47;5246292;28;20050;-78
2023/03/18 08:04:12;;;;;;;15.40;8.20;;;;;;;13.81;100.00;100975.50;5246581;28;20493;-78
2023/03/18 08:06:42;;;;;;;14.85;8.00;;;;;;;13.11;100.00;100982.81;5227539;28;20035;-79
2023/03/18 08:09:13;;;;;;;12.73;7.75;;;;;;;12.84;100.00;100978.75;5228158;28;20024;-78
2023/03/18 08:11:43;;;;;;;17.45;8.70;;;;;;;12.65;100.00;100989.97;5228107;28;20028;-78
2023/03/18 08:14:14;;;;;;;18.00;8.73;;;;;;;12.47;100.00;100994.78;5246227;28;20020;-78
2023/03/18 08:16:44;;;;;;;14.68;8.60;;;;;;;12.40;100.00;100994.66;5246820;28;20266;-78
2023/03/18 08:19:15;;;;;;;14.52;7.55;;;;;;;12.28;100.00;100988.78;5244714;28;20044;-78
2023/03/18 08:21:46;;;;;;;15.52;7.95;;;;;;;12.26;100.00;100988.16;5244284;28;20032;-78
2023/03/18 08:24:17;;;;;;;12.85;7.13;;;;;;;12.49;100.00;100984.69;5245123;28;20020;-78
2023/03/18 08:26:47;;;;;;;13.25;6.93;;;;;;;13.36;100.00;100978.09;5226733;28;20024;-78
2023/03/18 08:29:18;;;;;;;11.45;6.32;;;;;;;13.98;100.00;100987.78;5245001;28;20089;-78
2023/03/18 08:31:48;;;;;;;11.48;6.32;;;;;;;14.15;100.00;101002.75;5243893;28;20028;-78
2023/03/18 08:34:19;;;;;;;10.15;6.63;;;;;;;14.02;100.00;101001.75;5244368;28;20137;-78
2023/03/18 08:36:50;;;;;;;13.50;6.60;;;;;;;14.00;100.00;101010.84;5245450;28;20024;-78
2023/03/18 08:39:20;;;;;;;12.00;6.20;;;;;;;13.87;100.00;101002.56;5247862;28;20028;-78
2023/03/18 08:41:51;;;;;;;10.35;6.07;;;;;;;13.60;100.00;101009.38;5240529;28;20396;-78
2023/03/18 08:44:22;;;;;;;11.65;6.40;;;;;;;13.59;100.00;101012.25;5245177;28;20019;-77
2023/03/18 08:46:52;;;;;;;13.27;6.28;;;;;;;13.23;100.00;101010.19;5243641;28;20020;-78
2023/03/18 08:49:24;;;;;;;11.43;5.93;;;;;;;13.32;100.00;101016.34;5237935;28;20029;-78
2023/03/18 08:51:55;;;;;;;13.18;6.40;;;;;;;13.40;100.00;101009.06;5238677;28;20377;-79
2023/03/18 08:54:26;;;;;;;8.68;5.75;;;;;;;13.41;100.00;100999.13;5245620;28;20035;-78
2023/03/18 08:56:58;;;;;;;11.25;5.82;;;;;;;13.58;100.00;101008.72;5246071;28;20028;-78
2023/03/18 08:59:28;;;;;;;16.50;5.20;;;;;;;13.55;100.00;101009.06;5245318;28;20397;-78
2023/03/18 09:01:59;;;;;;;11.50;5.65;;;;;;;13.42;100.00;101017.78;5245316;28;20024;-78
2023/03/18 09:04:29;;;;;;;9.85;6.20;;;;;;;13.32;100.00;101024.44;5245730;28;20028;-79
2023/03/18 09:07:02;;;;;;;11.27;5.43;;;;;;;13.31;100.00;101020.91;5246145;28;20472;-79
2023/03/18 09:09:32;;;;;;;14.27;5.43;;;;;;;13.36;100.00;101018.50;5246343;28;20070;-78
2023/03/18 09:12:04;;;;;;;11.85;5.95;;;;;;;13.35;100.00;101021.38;5244666;28;20107;-78
2023/03/18 09:14:35;;;;;;;11.90;5.82;;;;;;;13.40;100.00;101011.75;5243063;28;20020;-78
2023/03/18 09:17:05;;;;;;;9.75;5.22;;;;;;;13.34;100.00;101006.22;5225128;28;20024;-78
2023/03/18 09:19:36;;;;;;;9.30;5.90;;;;;;;13.55;100.00;100998.28;5242842;28;20028;-78
2023/03/18 09:22:08;;;;;;;9.43;4.78;;;;;;;13.81;100.00;100991.69;5242520;28;20099;-78
2023/03/18 09:24:39;;;;;;;9.60;4.65;;;;;;;13.75;100.00;100998.63;5242749;28;20056;-78
2023/03/18 09:27:09;;;;;;;6.57;4.22;;;;;;;13.71;100.00;100995.47;5242687;28;20431;-78
2023/03/18 09:29:40;;;;;;;9.32;4.50;;;;;;;13.57;100.00;100988.19;5225075;28;20020;-78
2023/03/18 09:32:11;;;;;;;8.52;4.38;;;;;;;13.62;100.00;100998.41;5241934;28;20036;-78
2023/03/18 09:34:41;;;;;;;11.82;5.35;;;;;;;13.38;100.00;101003.00;5242936;28;20028;-78
2023/03/18 09:37:13;;;;;;;6.57;4.13;;;;;;;13.42;100.00;101000.78;5243102;28;20031;-78
2023/03/18 09:39:44;;;;;;;9.13;4.95;;;;;;;13.34;100.00;101003.53;5229878;28;20541;-78
2023/03/18 09:42:41;;;;;;;10.20;5.05;;;;;;;13.46;100.00;101002.09;5241910;28;20108;-78
2023/03/18 09:45:34;;;;;;;8.35;4.38;;;;;;;13.55;100.00;100997.47;5228797;28;20392;-78
2023/03/18 09:48:33;;;;;;;7.07;4.32;;;;;;;13.51;100.00;100997.00;5243372;28;20025;-78
2023/03/18 09:51:41;;;;;;;9.20;3.80;;;;;;;13.44;100.00;101002.25;5230062;28;20404;-78
2023/03/18 09:54:19;;;;;;;9.60;4.82;;;;;;;13.24;100.00;100998.38;5244001;28;20446;-78
2023/03/18 09:56:53;;;;;;;6.78;4.03;;;;;;;13.33;100.00;101001.88;5244009;28;20016;-78
2023/03/18 09:59:33;;;;;;;7.72;3.63;;;;;;;13.32;100.00;101008.28;5240851;28;20029;-78
2023/03/18 10:02:27;;;;;;;7.38;3.78;;;;;;;13.28;100.00;101009.66;5249466;28;20051;-78
2023/03/18 10:05:03;;;;;;;8.23;4.10;;;;;;;13.27;100.00;101016.06;5247429;28;20060;-78
2023/03/18 10:07:39;;;;;;;8.85;3.85;;;;;;;13.26;100.00;101012.53;5247639;28;20028;-78
2023/03/18 10:10:21;;;;;;;11.10;4.13;;;;;;;13.29;100.00;101016.72;5247512;28;20031;-78
2023/03/18 10:13:00;;;;;;;6.75;4.65;;;;;;;13.26;100.00;101012.53;5247489;28;20472;-78
2023/03/18 10:15:40;;;;;;;7.40;3.80;;;;;;;13.22;100.00;101019.28;5247231;28;20028;-78
2023/03/18 10:18:20;;;;;;;9.00;4.40;;;;;;;13.26;100.00;101027.88;5246268;28;20132;-78
2023/03/18 10:21:29;;;;;;;8.27;4.53;;;;;;;13.19;100.00;101027.69;5228430;28;20031;-79
2023/03/18 10:24:34;;;;;;;7.07;3.70;;;;;;;13.10;100.00;101037.69;5246983;28;20028;-78
2023/03/18 10:27:32;;;;;;;6.28;3.38;;;;;;;12.98;100.00;101025.63;5246534;28;20056;-78
2023/03/18 10:30:40;;;;;;;8.35;4.18;;;;;;;12.86;100.00;101013.59;5248389;28;20020;-78
2023/03/18 10:33:16;;;;;;;10.00;5.03;;;;;;;12.78;100.00;101029.78;5248325;28;20028;-77
2023/03/18 10:35:56;;;;;;;7.40;4.43;;;;;;;12.79;100.00;101040.38;5247543;28;20492;-79
2023/03/18 10:38:33;;;;;;;9.00;4.70;;;;;;;12.85;100.00;101042.38;5246993;28;20036;-79
2023/03/18 10:41:16;;;;;;;6.78;4.22;;;;;;;12.95;100.00;101052.91;5229703;28;20033;-78
2023/03/18 10:43:49;;;;;;;9.85;4.47;;;;;;;13.00;100.00;101039.75;5248684;28;20104;-79
2023/03/18 10:46:21;;;;;;;14.45;5.38;;;;;;;12.93;100.00;101052.25;5248048;28;20051;-78
2023/03/18 10:48:56;;;;;;;10.43;4.43;;;;;;;12.95;100.00;101052.91;5240015;28;20077;-79
2023/03/18 10:51:49;;;;;;;8.13;3.92;;;;;;;12.81;100.00;101048.28;5230552;28;20047;-80
2023/03/18 10:54:41;;;;;;;14.48;4.65;;;;;;;12.76;100.00;101054.22;5244304;28;20020;-79
2023/03/18 10:57:13;;;;;;;7.25;4.07;;;;;;;12.68;100.00;101049.69;5209824;28;20036;-80
2023/03/18 10:59:44;;;;;;;8.40;4.78;;;;;;;12.68;100.00;101060.44;5244171;28;20028;-79
2023/03/18 11:02:21;;;;;;;9.07;4.15;;;;;;;12.68;100.00;101054.22;5232927;28;20020;-79
2023/03/18 11:04:58;;;;;;;9.57;4.70;;;;;;;12.66;100.00;101054.41;5251624;28;20064;-79
2023/03/18 11:07:30;;;;;;;10.27;5.18;;;;;;;12.64;100.00;101056.41;5251916;28;20018;-79
2023/03/18 11:10:16;;;;;;;11.50;4.18;;;;;;;12.63;100.00;101064.69;5231905;28;20631;-78
2023/03/18 11:12:47;;;;;;;7.47;4.20;;;;;;;12.60;100.00;101062.31;5250962;28;20032;-79
2023/03/18 11:15:19;;;;;;;12.68;4.93;;;;;;;12.58;100.00;101056.28;5252585;28;20024;-79
2023/03/18 11:17:50;;;;;;;7.88;3.97;;;;;;;12.58;100.00;101058.97;5235591;28;20024;-79
2023/03/18 11:20:35;;;;;;;8.70;4.15;;;;;;;12.61;100.00;101058.66;5235346;28;20107;-79
2023/03/18 11:23:11;;;;;;;7.45;3.78;;;;;;;12.60;100.00;101063.19;5250240;28;20631;-79
2023/03/18 11:25:45;;;;;;;6.28;3.83;;;;;;;12.43;100.00;101056.16;5253095;28;20031;-79
2023/03/18 11:28:40;;;;;;;9.30;4.05;;;;;;;12.54;100.00;101058.47;5254390;28;20103;-79
2023/03/18 11:31:17;;;;;;;9.15;4.60;;;;;;;12.66;100.00;101057.09;5234184;28;20020;-79
2023/03/18 11:33:48;;;;;;;13.15;3.92;;;;;;;12.78;100.00;101057.53;5216810;28;20017;-79
2023/03/18 11:36:22;;;;;;;7.90;3.70;;;;;;;12.87;100.00;101055.66;5246624;28;20446;-78